createdAt,value
2022-11-22T00:02:19.930Z,23.60
2022-11-22T00:04:46.579Z,20.40
2022-11-22T00:07:13.217Z,23.50
2022-11-22T00:09:39.809Z,22.80
2022-11-22T00:12:06.416Z,22.30
2022-11-22T00:14:33.029Z,18.98
2022-11-22T00:16:59.587Z,23.98
2022-11-22T00:19:26.120Z,24.40
2022-11-22T00:21:52.690Z,26.80
2022-11-22T00:24:19.289Z,25.83
2022-11-22T00:26:46.036Z,25.48
2022-11-22T00:29:14.495Z,27.95
2022-11-22T00:31:41.116Z,23.10
2022-11-22T00:34:07.817Z,22.30
2022-11-22T00:36:34.371Z,22.27
2022-11-22T00:39:01.085Z,24.20
2022-11-22T00:41:27.728Z,26.52
2022-11-22T00:43:54.321Z,25.48
2022-11-22T00:46:20.830Z,26.23
2022-11-22T00:48:47.386Z,22.98
2022-11-22T00:51:13.955Z,21.23
2022-11-22T00:53:40.485Z,21.48
2022-11-22T00:56:07.255Z,19.60
2022-11-22T00:58:33.892Z,24.83
2022-11-22T01:01:00.526Z,20.08
2022-11-22T01:03:27.336Z,20.50
2022-11-22T01:05:53.913Z,20.42
2022-11-22T01:08:20.548Z,22.05
2022-11-22T01:10:47.086Z,25.08
2022-11-22T01:13:13.734Z,18.67
2022-11-22T01:15:40.356Z,18.17
2022-11-22T01:18:06.939Z,20.95
2022-11-22T01:20:33.660Z,20.42
2022-11-22T01:23:00.269Z,22.35
2022-11-22T01:25:26.761Z,18.02
2022-11-22T01:27:53.292Z,20.35
2022-11-22T01:30:19.907Z,18.15
2022-11-22T01:32:46.518Z,21.10
2022-11-22T01:35:13.148Z,20.55
2022-11-22T01:37:39.762Z,21.85
2022-11-22T01:40:07.334Z,24.67
2022-11-22T01:42:53.696Z,17.80
2022-11-22T01:45:29.542Z,17.52
2022-11-22T01:48:04.454Z,21.13
2022-11-22T01:50:35.255Z,12.77
2022-11-22T01:53:06.912Z,20.35
2022-11-22T01:55:34.994Z,12.40
2022-11-22T01:58:02.393Z,15.52
2022-11-22T02:00:28.974Z,14.48
2022-11-22T02:03:00.995Z,15.25
2022-11-22T02:05:32.692Z,14.93
2022-11-22T02:08:05.804Z,12.00
2022-11-22T02:10:38.930Z,16.73
2022-11-22T02:13:08.506Z,14.90
2022-11-22T02:15:43.175Z,16.98
2022-11-22T02:18:09.946Z,15.70
2022-11-22T02:20:38.737Z,12.00
2022-11-22T02:23:26.487Z,14.67
2022-11-22T02:25:55.429Z,10.52
2022-11-22T02:28:22.229Z,12.43
2022-11-22T02:30:48.790Z,10.65
2022-11-22T02:33:15.419Z,10.38
2022-11-22T02:35:42.510Z,9.82
2022-11-22T02:38:14.279Z,10.52
2022-11-22T02:40:56.090Z,6.90
2022-11-22T02:43:27.000Z,11.93
2022-11-22T02:45:53.653Z,12.23
2022-11-22T02:48:20.214Z,11.38
2022-11-22T02:50:47.242Z,10.50
2022-11-22T02:53:14.303Z,8.75
2022-11-22T02:55:41.240Z,6.65
2022-11-22T02:58:08.198Z,8.80
2022-11-22T03:00:36.588Z,7.88
2022-11-22T03:03:03.373Z,9.20
2022-11-22T03:05:30.074Z,12.30
2022-11-22T03:07:56.759Z,11.93
2022-11-22T03:10:23.304Z,8.60
2022-11-22T03:12:50.002Z,9.32
2022-11-22T03:15:16.614Z,8.57
2022-11-22T03:17:43.193Z,8.10
2022-11-22T03:20:10.113Z,9.85
2022-11-22T03:22:36.745Z,7.57
2022-11-22T03:25:03.748Z,8.80
2022-11-22T03:27:30.360Z,12.43
2022-11-22T03:29:56.919Z,10.50
2022-11-22T03:32:23.534Z,9.30
2022-11-22T03:34:50.150Z,10.32
2022-11-22T03:37:16.770Z,8.00
2022-11-22T03:39:43.338Z,7.65
2022-11-22T03:42:09.969Z,6.72
2022-11-22T03:44:36.513Z,7.32
2022-11-22T03:47:03.125Z,8.88
2022-11-22T03:49:30.018Z,6.07
2022-11-22T03:51:56.924Z,7.30
2022-11-22T03:54:23.472Z,4.85
2022-11-22T03:56:50.029Z,9.40
2022-11-22T03:59:16.680Z,5.38
2022-11-22T04:01:43.386Z,9.73
2022-11-22T04:04:11.310Z,4.68
2022-11-22T04:06:38.530Z,7.82
2022-11-22T04:09:05.277Z,3.60
2022-11-22T04:11:31.849Z,5.70
2022-11-22T04:14:17.171Z,8.68
2022-11-22T04:16:43.776Z,5.07
2022-11-22T04:19:10.349Z,4.30
2022-11-22T04:21:36.956Z,7.90
2022-11-22T04:24:27.845Z,4.53
2022-11-22T04:26:54.893Z,4.55
2022-11-22T04:29:21.816Z,4.07
2022-11-22T04:32:08.747Z,5.10
2022-11-22T04:34:36.136Z,6.43
2022-11-22T04:37:04.171Z,5.50
2022-11-22T04:39:31.221Z,6.20
2022-11-22T04:42:17.180Z,7.72
2022-11-22T04:44:44.753Z,6.85
2022-11-22T04:47:34.029Z,5.60
2022-11-22T04:50:02.094Z,4.55
2022-11-22T04:52:47.295Z,8.10
2022-11-22T04:55:14.371Z,5.88
2022-11-22T04:57:41.475Z,7.43
2022-11-22T05:00:08.839Z,6.18
2022-11-22T05:02:35.954Z,7.63
2022-11-22T05:05:02.651Z,7.35
2022-11-22T05:07:29.526Z,5.63
2022-11-22T05:09:56.615Z,7.68
2022-11-22T05:12:23.972Z,7.20
2022-11-22T05:14:51.307Z,5.22
2022-11-22T05:17:18.219Z,5.15
2022-11-22T05:19:49.147Z,6.97
2022-11-22T05:23:13.046Z,7.22
2022-11-22T05:29:24.766Z,9.32
2022-11-22T05:31:51.639Z,12.60
2022-11-22T05:34:18.272Z,8.38
2022-11-22T05:36:44.903Z,6.15
2022-11-22T05:39:11.463Z,6.88
2022-11-22T05:41:38.043Z,10.77
2022-11-22T05:44:04.884Z,9.93
2022-11-22T05:46:31.426Z,7.70
2022-11-22T05:48:58.668Z,6.38
2022-11-22T05:51:32.538Z,8.13
2022-11-22T05:54:01.082Z,13.32
2022-11-22T05:56:27.708Z,9.55
2022-11-22T05:58:54.324Z,8.73
2022-11-22T06:04:24.534Z,7.53
2022-11-22T06:06:51.154Z,12.60
2022-11-22T06:09:17.759Z,9.20
2022-11-22T06:11:44.372Z,9.27
2022-11-22T06:14:10.959Z,9.73
2022-11-22T06:16:37.589Z,8.75
2022-11-22T06:19:04.385Z,7.65
2022-11-22T06:21:30.978Z,11.55
2022-11-22T06:23:57.945Z,9.77
2022-11-22T06:26:25.420Z,9.38
2022-11-22T06:28:53.667Z,5.82
2022-11-22T06:31:25.569Z,8.63
2022-11-22T06:33:59.154Z,7.28
2022-11-22T06:36:33.796Z,9.13
2022-11-22T06:39:03.426Z,7.90
2022-11-22T06:44:05.420Z,7.13
2022-11-22T06:46:33.082Z,7.40
2022-11-22T06:48:59.931Z,6.78
2022-11-22T06:51:29.739Z,6.90
2022-11-22T06:53:57.645Z,8.60
2022-11-22T06:56:27.544Z,7.13
2022-11-22T06:58:55.105Z,8.73
2022-11-22T07:01:27.725Z,7.13
2022-11-22T07:03:58.821Z,7.40
2022-11-22T07:06:28.402Z,8.55
2022-11-22T07:08:55.650Z,8.38
2022-11-22T07:11:28.487Z,10.23
2022-11-22T07:14:00.251Z,7.22
2022-11-22T07:16:30.430Z,10.55
2022-11-22T07:19:00.448Z,5.38
2022-11-22T07:21:27.454Z,7.68
2022-11-22T07:23:55.388Z,7.53
2022-11-22T07:26:23.909Z,7.05
2022-11-22T07:28:50.543Z,8.00
2022-11-22T07:31:18.787Z,8.90
2022-11-22T07:33:45.900Z,7.20
2022-11-22T07:36:15.832Z,6.55
2022-11-22T07:38:42.479Z,12.30
2022-11-22T07:41:09.984Z,7.63
2022-11-22T07:43:37.382Z,9.45
2022-11-22T07:46:07.919Z,14.20
2022-11-22T07:48:34.846Z,10.30
2022-11-22T07:51:08.072Z,8.20
2022-11-22T07:53:35.811Z,10.90
2022-11-22T07:56:04.371Z,12.15
2022-11-22T07:58:31.680Z,12.05
2022-11-22T08:00:58.234Z,17.92
2022-11-22T08:03:28.843Z,14.57
2022-11-22T08:06:04.227Z,10.20
2022-11-22T08:08:31.476Z,18.15
2022-11-22T08:10:58.220Z,9.40
2022-11-22T08:13:25.576Z,9.95
2022-11-22T08:15:54.714Z,12.43
2022-11-22T08:20:48.436Z,9.70
2022-11-22T08:23:15.203Z,12.65
2022-11-22T08:25:41.762Z,13.48
2022-11-22T08:28:08.281Z,14.38
2022-11-22T08:30:35.019Z,10.88
2022-11-22T08:33:01.621Z,10.13
2022-11-22T08:35:28.178Z,9.55
2022-11-22T08:37:58.812Z,14.63
2022-11-22T08:40:25.677Z,15.93
2022-11-22T08:42:56.331Z,23.33
2022-11-22T08:45:22.926Z,19.25
2022-11-22T08:47:49.502Z,20.60
2022-11-22T08:50:17.912Z,26.38
2022-11-22T08:52:44.621Z,20.58
2022-11-22T08:55:11.341Z,14.45
2022-11-22T08:57:38.028Z,15.50
2022-11-22T09:00:06.258Z,17.38
2022-11-22T09:02:33.051Z,12.63
2022-11-22T09:04:59.784Z,16.98
2022-11-22T09:10:14.740Z,10.30
2022-11-22T09:12:44.784Z,11.27
2022-11-22T09:15:12.043Z,14.70
2022-11-22T09:17:38.697Z,21.45
2022-11-22T09:20:06.251Z,22.70
2022-11-22T09:22:32.821Z,14.82
2022-11-22T09:24:59.590Z,16.75
2022-11-22T09:27:27.008Z,19.90
2022-11-22T09:29:53.797Z,21.05
2022-11-22T09:32:21.606Z,14.02
2022-11-22T09:34:48.624Z,10.25
2022-11-22T09:37:18.448Z,10.55
2022-11-22T09:39:48.514Z,14.93
2022-11-22T09:42:57.484Z,18.38
2022-11-22T09:45:33.424Z,14.27
2022-11-22T09:48:40.861Z,16.40
2022-11-22T09:51:12.663Z,12.07
2022-11-22T09:53:42.380Z,13.32
2022-11-22T09:58:44.580Z,12.30
2022-11-22T10:01:40.661Z,12.63
2022-11-22T10:04:24.535Z,13.52
2022-11-22T10:07:30.294Z,14.68
2022-11-22T10:10:05.870Z,13.57
2022-11-22T10:12:39.067Z,13.10
2022-11-22T10:15:30.128Z,14.30
2022-11-22T10:18:18.121Z,13.70
2022-11-22T10:20:48.827Z,15.45
2022-11-22T10:23:24.149Z,12.52
2022-11-22T10:25:58.776Z,11.70
2022-11-22T10:28:35.454Z,16.85
2022-11-22T10:31:15.584Z,16.73
2022-11-22T10:33:48.277Z,10.43
2022-11-22T10:36:41.299Z,13.80
2022-11-22T10:39:21.015Z,16.42
2022-11-22T10:42:26.300Z,14.32
2022-11-22T10:45:10.041Z,7.85
2022-11-22T10:47:52.378Z,8.95
2022-11-22T10:50:22.594Z,13.65
2022-11-22T10:52:58.264Z,10.60
2022-11-22T10:55:43.121Z,9.48
2022-11-22T10:58:34.297Z,11.35
2022-11-22T11:01:15.672Z,5.93
2022-11-22T11:03:45.930Z,11.23
2022-11-22T11:06:33.275Z,7.93
2022-11-22T11:12:21.496Z,10.52
2022-11-22T11:14:53.431Z,9.77
2022-11-22T11:17:37.626Z,9.82
2022-11-22T11:20:31.625Z,13.23
2022-11-22T11:23:14.130Z,8.30
2022-11-22T11:25:44.048Z,8.30
2022-11-22T11:28:37.204Z,8.38
2022-11-22T11:31:09.663Z,6.43
2022-11-22T11:33:39.223Z,8.65
2022-11-22T11:36:10.599Z,12.75
2022-11-22T11:38:43.283Z,8.15
2022-11-22T11:41:28.433Z,14.32
2022-11-22T11:44:00.240Z,6.70
2022-11-22T11:46:28.784Z,20.63
2022-11-22T11:49:09.762Z,10.00
2022-11-22T11:51:57.639Z,7.05
2022-11-22T11:54:40.050Z,8.02
2022-11-22T11:57:21.390Z,6.10
2022-11-22T11:59:50.740Z,7.70
2022-11-22T12:02:22.234Z,9.60
2022-11-22T12:04:53.727Z,6.35
2022-11-22T12:07:22.704Z,11.50
2022-11-22T12:09:51.684Z,4.85
2022-11-22T12:12:45.247Z,5.05
2022-11-22T12:15:12.451Z,8.95
2022-11-22T12:17:57.271Z,6.72
2022-11-22T12:20:37.183Z,6.82
2022-11-22T12:23:24.342Z,8.82
2022-11-22T12:25:55.304Z,9.60
2022-11-22T12:28:24.938Z,6.57
2022-11-22T12:33:45.282Z,9.20
2022-11-22T12:36:33.728Z,7.25
2022-11-22T12:39:02.953Z,9.25
2022-11-22T12:41:33.591Z,7.40
2022-11-22T12:44:04.782Z,5.93
2022-11-22T12:46:54.867Z,7.75
2022-11-22T12:49:40.338Z,7.22
2022-11-22T12:52:31.276Z,5.80
2022-11-22T12:55:09.010Z,4.07
2022-11-22T12:58:00.593Z,8.98
2022-11-22T13:00:32.666Z,7.45
2022-11-22T13:03:04.030Z,7.55
2022-11-22T13:05:36.753Z,5.88
2022-11-22T13:08:15.366Z,7.35
2022-11-22T13:11:03.886Z,7.88
2022-11-22T13:13:42.934Z,11.93
2022-11-22T13:16:11.772Z,14.32
2022-11-22T13:18:46.576Z,4.10
2022-11-22T13:21:36.909Z,5.10
2022-11-22T13:24:24.945Z,6.43
2022-11-22T13:27:19.113Z,5.90
2022-11-22T13:29:47.633Z,5.85
2022-11-22T13:32:20.437Z,7.38
2022-11-22T13:35:22.709Z,9.30
2022-11-22T13:38:03.018Z,7.03
2022-11-22T13:40:35.215Z,7.90
2022-11-22T13:43:19.681Z,8.82
2022-11-22T13:46:01.318Z,6.35
2022-11-22T13:48:40.225Z,8.23
2022-11-22T13:51:12.531Z,5.15
2022-11-22T13:53:43.657Z,4.95
2022-11-22T13:56:36.306Z,7.63
2022-11-22T13:59:14.621Z,14.80
2022-11-22T14:01:41.267Z,17.55
2022-11-22T14:04:16.968Z,9.25
2022-11-22T14:06:50.803Z,6.03
2022-11-22T14:09:42.884Z,5.20
2022-11-22T14:12:21.838Z,2.97
2022-11-22T14:15:17.485Z,8.05
2022-11-22T14:18:12.983Z,8.90
2022-11-22T14:20:58.573Z,7.03
2022-11-22T14:23:55.669Z,4.82
2022-11-22T14:26:42.298Z,5.07
2022-11-22T14:29:54.442Z,11.23
2022-11-22T14:32:26.124Z,5.70
2022-11-22T14:35:05.149Z,7.60
2022-11-22T14:37:31.996Z,6.47
2022-11-22T14:40:08.013Z,9.18
2022-11-22T14:42:37.779Z,11.55
2022-11-22T14:47:51.512Z,3.60
2022-11-22T14:50:24.562Z,6.57
2022-11-22T14:52:52.833Z,6.78
2022-11-22T14:55:27.742Z,6.93
2022-11-22T14:58:02.423Z,5.60
2022-11-22T15:00:38.722Z,7.95
2022-11-22T15:03:23.883Z,6.18
2022-11-22T15:09:17.861Z,4.25
2022-11-22T15:09:46.503Z,11.10
2022-11-22T15:12:51.773Z,7.40
2022-11-22T15:59:44.625Z,4.47
2022-11-22T16:02:19.762Z,4.90
2022-11-22T16:06:04.619Z,5.28
2022-11-22T16:07:43.239Z,4.97
2022-11-22T16:10:19.144Z,5.20
2022-11-22T16:12:45.882Z,5.72
2022-11-22T16:15:21.838Z,3.28
2022-11-22T16:17:56.424Z,3.70
2022-11-22T16:20:29.459Z,2.90
2022-11-22T16:23:14.339Z,5.78
2022-11-22T16:25:47.636Z,6.03
2022-11-22T16:28:22.675Z,5.60
2022-11-22T16:30:49.363Z,3.92
2022-11-22T16:33:16.079Z,5.65
2022-11-22T16:35:42.958Z,8.18
2022-11-22T16:38:10.700Z,2.33
2022-11-22T16:40:43.123Z,4.32
2022-11-22T16:43:34.157Z,4.22
2022-11-22T16:46:02.267Z,3.03
2022-11-22T16:48:32.372Z,3.63
2022-11-22T16:51:04.971Z,3.42
2022-11-22T16:53:41.857Z,5.82
2022-11-22T16:56:15.167Z,7.80
2022-11-22T16:58:41.750Z,4.25
2022-11-22T17:01:12.013Z,8.60
2022-11-22T17:03:39.088Z,4.18
2022-11-22T17:06:16.108Z,3.42
2022-11-22T17:08:42.812Z,5.03
2022-11-22T17:11:11.127Z,3.00
2022-11-22T17:13:37.980Z,7.38
2022-11-22T17:16:05.031Z,6.38
2022-11-22T17:18:31.737Z,4.35
2022-11-22T17:20:59.208Z,3.75
2022-11-22T17:23:33.940Z,8.45
2022-11-22T17:26:00.674Z,5.57
2022-11-22T17:28:27.514Z,3.90
2022-11-22T17:30:57.868Z,6.45
2022-11-22T17:33:25.477Z,5.20
2022-11-22T17:35:52.935Z,8.07
2022-11-22T17:38:19.665Z,5.60
2022-11-22T17:40:46.383Z,2.97
2022-11-22T17:43:13.246Z,7.38
2022-11-22T17:45:44.398Z,5.97
2022-11-22T17:48:12.372Z,3.83
2022-11-22T17:50:39.439Z,5.97
2022-11-22T17:53:06.096Z,9.65
2022-11-22T17:55:48.477Z,5.07
2022-11-22T17:58:19.262Z,4.40
2022-11-22T18:00:46.250Z,6.53
2022-11-22T18:03:13.018Z,4.13
2022-11-22T18:05:39.740Z,6.30
2022-11-22T18:08:07.073Z,3.67
2022-11-22T18:10:33.716Z,4.18
2022-11-22T18:13:20.174Z,7.43
2022-11-22T18:15:58.561Z,6.10
2022-11-22T18:18:54.423Z,7.03
2022-11-22T18:21:17.246Z,3.83
2022-11-22T18:23:45.258Z,2.95
2022-11-22T18:29:32.532Z,4.55
2022-11-22T18:31:54.341Z,6.43
2022-11-22T18:34:22.527Z,5.15
2022-11-22T18:37:01.562Z,7.32
2022-11-22T18:39:36.011Z,4.00
2022-11-22T18:42:05.027Z,7.70
2022-11-22T18:44:31.717Z,4.93
2022-11-22T18:46:58.408Z,3.42
2022-11-22T18:49:25.264Z,3.83
2022-11-22T18:51:52.365Z,4.35
2022-11-22T18:54:19.848Z,2.75
2022-11-22T18:56:46.553Z,5.50
2022-11-22T18:59:13.462Z,4.82
2022-11-22T19:01:41.071Z,4.10
2022-11-22T19:04:09.701Z,6.10
2022-11-22T19:06:36.621Z,8.40
2022-11-22T19:09:03.638Z,7.18
2022-11-22T19:11:31.674Z,3.33
2022-11-22T19:13:59.231Z,6.85
2022-11-22T19:16:29.475Z,5.88
2022-11-22T19:18:57.383Z,4.30
2022-11-22T19:21:26.633Z,2.92
2022-11-22T19:23:54.289Z,3.63
2022-11-22T19:26:23.522Z,4.88
2022-11-22T19:28:53.506Z,4.00
2022-11-22T19:31:22.045Z,2.55
2022-11-22T19:33:48.979Z,3.97
2022-11-22T19:36:21.062Z,5.13
2022-11-22T19:38:48.390Z,4.07
2022-11-22T19:41:17.751Z,4.82
2022-11-22T19:43:45.736Z,4.90
2022-11-22T19:46:13.253Z,6.55
2022-11-22T19:48:46.690Z,2.35
2022-11-22T19:51:15.383Z,7.50
2022-11-22T19:53:42.814Z,4.28
2022-11-22T19:56:15.041Z,5.00
2022-11-22T19:58:49.230Z,3.30
2022-11-22T20:01:16.609Z,4.75
2022-11-22T20:03:44.238Z,3.65
2022-11-22T20:06:13.574Z,3.63
2022-11-22T20:08:40.435Z,3.95
2022-11-22T20:11:12.651Z,3.72
2022-11-22T20:13:45.281Z,3.30
2022-11-22T20:16:15.477Z,3.55
2022-11-22T20:18:43.000Z,4.75
2022-11-22T20:21:11.033Z,6.95
2022-11-22T20:23:38.451Z,2.42
2022-11-22T20:26:09.728Z,3.05
2022-11-22T20:28:40.917Z,4.57
2022-11-22T20:31:10.718Z,2.60
2022-11-22T20:36:09.728Z,3.17
2022-11-22T20:38:38.187Z,2.05
2022-11-22T20:41:06.420Z,2.85
2022-11-22T20:43:34.481Z,3.45
2022-11-22T20:46:15.340Z,1.83
2022-11-22T20:48:44.044Z,2.95
2022-11-22T20:51:13.978Z,4.50
2022-11-22T20:53:41.114Z,3.33
2022-11-22T20:56:08.289Z,1.90
2022-11-22T20:58:35.069Z,2.72
2022-11-22T21:01:07.382Z,2.85
2022-11-22T21:03:34.615Z,3.90
2022-11-22T21:06:02.373Z,1.45
2022-11-22T21:08:29.104Z,2.47
2022-11-22T21:11:07.732Z,3.60
2022-11-22T21:13:34.466Z,3.28
2022-11-22T21:16:20.674Z,1.67
2022-11-22T21:18:53.964Z,1.48
2022-11-22T21:21:24.742Z,3.13
2022-11-22T21:23:53.787Z,2.15
2022-11-22T21:26:21.823Z,5.40
2022-11-22T21:28:49.575Z,2.15
2022-11-22T21:31:16.950Z,2.30
2022-11-22T21:33:43.876Z,5.70
2022-11-22T21:36:10.699Z,2.00
2022-11-22T21:38:40.254Z,2.15
2022-11-22T21:43:56.824Z,2.70
2022-11-22T21:46:25.076Z,3.28
2022-11-22T21:48:51.896Z,2.10
2022-11-22T21:51:18.598Z,2.92
2022-11-22T21:53:45.341Z,3.92
2022-11-22T21:56:11.937Z,1.70
2022-11-22T21:58:38.705Z,1.48
2022-11-22T22:01:09.659Z,2.03
2022-11-22T22:03:40.169Z,1.80
2022-11-22T22:06:07.316Z,1.45
2022-11-22T22:08:34.355Z,1.30
2022-11-22T22:11:03.877Z,2.38
2022-11-22T22:13:30.981Z,1.80
2022-11-22T22:16:04.059Z,1.83
2022-11-22T22:18:37.255Z,2.15
2022-11-22T22:21:07.260Z,1.88
2022-11-22T22:23:35.095Z,2.80
2022-11-22T22:26:04.195Z,1.20
2022-11-22T22:28:32.355Z,1.90
2022-11-22T22:31:06.035Z,1.90
2022-11-22T22:33:33.328Z,3.67
2022-11-22T22:36:00.054Z,5.72
2022-11-22T22:38:27.102Z,2.58
2022-11-22T22:40:55.536Z,1.92
2022-11-22T22:43:23.330Z,2.15
2022-11-22T22:45:50.827Z,2.50
2022-11-22T22:48:18.287Z,2.20
2022-11-22T22:50:44.940Z,1.67
2022-11-22T22:53:11.560Z,2.33
2022-11-22T22:55:38.129Z,1.50
2022-11-22T22:58:04.789Z,2.08
2022-11-22T23:00:31.468Z,2.35
2022-11-22T23:02:58.205Z,3.28
2022-11-22T23:05:24.927Z,3.45
2022-11-22T23:07:51.540Z,5.38
2022-11-22T23:10:18.354Z,4.25
2022-11-22T23:12:44.925Z,1.67
2022-11-22T23:15:11.564Z,2.40
2022-11-22T23:17:38.233Z,2.28
2022-11-22T23:20:05.743Z,6.68
2022-11-22T23:22:32.552Z,2.00
2022-11-22T23:24:59.112Z,4.25
2022-11-22T23:27:25.733Z,2.10
2022-11-22T23:29:52.366Z,5.50
2022-11-22T23:32:18.956Z,3.55
2022-11-22T23:34:45.688Z,1.63
2022-11-22T23:37:12.507Z,1.95
2022-11-22T23:39:39.090Z,2.97
2022-11-22T23:42:05.905Z,2.97
2022-11-22T23:44:32.500Z,2.90
2022-11-22T23:46:59.169Z,2.13
2022-11-22T23:49:25.852Z,3.92
2022-11-22T23:51:52.530Z,1.83
2022-11-22T23:54:19.146Z,3.95
2022-11-22T23:56:45.721Z,6.82
2022-11-22T23:59:12.363Z,3.22
